Akharnai, Greece
Current Conditions -  °F | °C
As of 10:20 PM on Friday 31 Oct 2014 (Local Time) from LGEL Reporting Station
Scattered Clouds Scattered Clouds  
Wind Chill: 57°   Ceiling: Unl
Heat Index: 57°   Visibility: 6mi
Dew Point: 45°   Wind: 12mph
Humidity: 63%   Direction: 360°N
Pressure: 30.09"   Gusts: NA
Location:  38.08°N, 23.73°E
Report Text: LGEL 311920Z 36010KT 9999 SCT030 14/07 Q1019
Loading
Personal Weather Stations






























Interactive Weather Map
Tropical Storm Tracking
New forecast layout! Learn more

10-Day Weather Forecast

Advertisements
Track Severe Weather on mobile